createdAt,value
2019-01-20T00:00:05.622Z,101566.59
2019-01-20T00:01:10.450Z,101565.30
2019-01-20T00:02:12.415Z,101570.49
2019-01-20T00:03:14.623Z,101568.27
2019-01-20T00:04:16.583Z,101568.64
2019-01-20T00:05:18.601Z,101568.64
2019-01-20T00:06:20.544Z,101565.12
2019-01-20T00:07:22.759Z,101571.25
2019-01-20T00:08:24.717Z,101572.17
2019-01-20T00:09:26.658Z,101571.25
2019-01-20T00:10:28.597Z,101575.14
2019-01-20T00:11:30.561Z,101574.59
2019-01-20T00:12:32.566Z,101580.35
2019-01-20T00:13:34.538Z,101574.59
2019-01-20T00:14:36.551Z,101574.59
2019-01-20T00:15:38.568Z,101570.70
2019-01-20T00:16:40.519Z,101569.73
2019-01-20T00:17:42.714Z,101575.90
2019-01-20T00:18:44.717Z,101573.30
2019-01-20T00:19:48.631Z,101564.53
2019-01-20T00:20:50.339Z,101568.81
2019-01-20T00:21:52.273Z,101572.00
2019-01-20T00:22:54.220Z,101569.73
2019-01-20T00:23:56.193Z,101569.02
2019-01-20T00:24:58.161Z,101569.73
2019-01-20T00:26:03.065Z,101568.09
2019-01-20T00:27:05.042Z,101566.80
2019-01-20T00:28:06.973Z,101563.82
2019-01-20T00:29:08.944Z,101568.64
2019-01-20T00:30:10.972Z,101571.63
2019-01-20T00:31:12.979Z,101566.97
2019-01-20T00:32:14.925Z,101569.02
2019-01-20T00:33:24.217Z,101564.74
2019-01-20T00:34:26.197Z,101573.09
2019-01-20T00:35:28.288Z,101566.97
2019-01-20T00:36:33.371Z,101569.57
2019-01-20T00:37:36.136Z,101571.42
2019-01-20T00:38:38.703Z,101569.19
2019-01-20T00:39:41.712Z,101571.25
2019-01-20T00:40:43.894Z,101569.19
2019-01-20T00:41:45.986Z,101570.87
2019-01-20T00:42:50.513Z,101569.19
2019-01-20T00:43:53.070Z,101573.09
2019-01-20T00:45:02.402Z,101563.44
2019-01-20T00:46:02.491Z,101563.06
2019-01-20T00:47:04.820Z,101566.97
2019-01-20T00:48:07.117Z,101566.22
2019-01-20T00:49:09.693Z,101563.06
2019-01-20T00:50:12.156Z,101561.39
2019-01-20T00:51:14.260Z,101564.74
2019-01-20T00:52:16.212Z,101568.27
2019-01-20T00:53:18.164Z,101559.16
2019-01-20T00:54:20.137Z,101565.30
2019-01-20T00:55:22.100Z,101565.30
2019-01-20T00:56:24.057Z,101568.27
2019-01-20T00:57:26.068Z,101565.30
2019-01-20T00:58:28.043Z,101560.09
2019-01-20T00:59:30.007Z,101560.84
2019-01-20T01:00:31.975Z,101561.77
2019-01-20T01:01:33.940Z,101559.55
2019-01-20T01:02:39.311Z,101563.44
2019-01-20T01:03:43.481Z,101562.69
2019-01-20T01:04:45.443Z,101560.67
2019-01-20T01:05:48.705Z,101561.39
2019-01-20T01:06:54.023Z,101565.30
2019-01-20T01:07:55.966Z,101561.77
2019-01-20T01:08:57.977Z,101564.37
2019-01-20T01:10:00.196Z,101564.37
2019-01-20T01:11:02.226Z,101563.44
2019-01-20T01:12:04.827Z,101563.44
2019-01-20T01:13:06.921Z,101568.27
2019-01-20T01:14:08.845Z,101565.30
2019-01-20T01:15:10.781Z,101564.37
2019-01-20T01:16:12.753Z,101563.44
2019-01-20T01:17:14.765Z,101564.74
2019-01-20T01:18:16.729Z,101566.59
2019-01-20T01:19:20.790Z,101560.47
2019-01-20T01:20:22.434Z,101563.61
2019-01-20T01:21:24.475Z,101556.56
2019-01-20T01:22:26.407Z,101559.16
2019-01-20T01:23:28.359Z,101558.24
2019-01-20T01:24:30.305Z,101557.87
2019-01-20T01:25:32.249Z,101558.79
2019-01-20T01:26:34.217Z,101562.31
2019-01-20T01:27:36.226Z,101558.24
2019-01-20T01:28:40.323Z,101561.77
2019-01-20T01:29:42.318Z,101558.24
2019-01-20T01:30:44.271Z,101559.55
2019-01-20T01:31:46.318Z,101560.84
2019-01-20T01:32:48.258Z,101556.94
2019-01-20T01:33:50.202Z,101563.98
2019-01-20T01:34:52.159Z,101557.48
2019-01-20T01:35:54.088Z,101558.79
2019-01-20T01:36:56.063Z,101562.69
2019-01-20T01:37:58.009Z,101564.37
2019-01-20T01:38:59.938Z,101561.39
2019-01-20T01:40:01.877Z,101563.98
2019-01-20T01:41:03.964Z,101563.27
2019-01-20T01:42:05.972Z,101565.87
2019-01-20T01:43:07.993Z,101559.37
2019-01-20T01:44:09.937Z,101553.04
2019-01-20T01:45:11.910Z,101558.07
2019-01-20T01:46:13.846Z,101553.97
2019-01-20T01:47:15.823Z,101558.41
2019-01-20T01:48:21.144Z,101551.91
2019-01-20T01:49:23.076Z,101556.77
2019-01-20T01:50:25.019Z,101555.81
2019-01-20T01:51:26.961Z,101549.31
2019-01-20T01:52:28.932Z,101553.80
2019-01-20T01:53:30.883Z,101550.61
2019-01-20T01:54:32.820Z,101554.17
2019-01-20T01:55:34.773Z,101549.69
2019-01-20T01:56:40.198Z,101551.57
2019-01-20T01:57:42.173Z,101555.47
2019-01-20T01:58:44.120Z,101556.77
2019-01-20T01:59:46.130Z,101561.59
2019-01-20T02:00:48.099Z,101561.77
2019-01-20T02:01:50.036Z,101568.27
2019-01-20T02:02:52.084Z,101561.39
2019-01-20T02:03:54.026Z,101564.37
2019-01-20T02:04:58.845Z,101560.84
2019-01-20T02:06:00.831Z,101564.92
2019-01-20T02:07:03.013Z,101562.69
2019-01-20T02:08:05.074Z,101563.24
2019-01-20T02:09:07.009Z,101564.16
2019-01-20T02:10:08.954Z,101563.24
2019-01-20T02:11:10.915Z,101558.96
2019-01-20T02:12:13.417Z,101555.06
2019-01-20T02:13:15.389Z,101557.66
2019-01-20T02:14:17.335Z,101558.96
2019-01-20T02:15:20.532Z,101551.91
2019-01-20T02:16:22.487Z,101551.53
2019-01-20T02:17:24.586Z,101558.96
2019-01-20T02:18:26.610Z,101557.66
2019-01-20T02:19:28.550Z,101562.11
2019-01-20T02:20:30.489Z,101561.36
2019-01-20T02:21:32.443Z,101555.61
2019-01-20T02:22:34.373Z,101553.01
2019-01-20T02:23:36.483Z,101557.45
2019-01-20T02:24:38.451Z,101560.06
2019-01-20T02:25:40.447Z,101561.36
2019-01-20T02:26:42.982Z,101557.83
2019-01-20T02:27:44.943Z,101558.76
2019-01-20T02:28:49.015Z,101560.44
2019-01-20T02:29:51.093Z,101557.28
2019-01-20T02:30:53.016Z,101559.52
2019-01-20T02:31:54.955Z,101557.83
2019-01-20T02:32:56.896Z,101556.91
2019-01-20T02:33:58.852Z,101554.69
2019-01-20T02:35:00.785Z,101556.53
2019-01-20T02:36:02.725Z,101556.53
2019-01-20T02:37:04.665Z,101559.13
2019-01-20T02:38:06.669Z,101560.06
2019-01-20T02:39:08.632Z,101565.27
2019-01-20T02:40:10.636Z,101560.44
2019-01-20T02:41:12.592Z,101556.53
2019-01-20T02:42:14.599Z,101566.02
2019-01-20T02:43:16.548Z,101561.19
2019-01-20T02:44:18.519Z,101559.52
2019-01-20T02:45:22.826Z,101561.56
2019-01-20T02:46:24.770Z,101563.79
2019-01-20T02:47:26.797Z,101566.22
2019-01-20T02:48:28.788Z,101560.64
2019-01-20T02:49:30.776Z,101559.34
2019-01-20T02:50:32.714Z,101555.44
2019-01-20T02:51:34.649Z,101565.47
2019-01-20T02:52:36.594Z,101557.11
2019-01-20T02:53:38.542Z,101561.94
2019-01-20T02:54:40.511Z,101563.24
2019-01-20T02:55:42.444Z,101563.79
2019-01-20T02:56:44.386Z,101561.94
2019-01-20T02:57:46.330Z,101561.94
2019-01-20T02:58:48.266Z,101562.31
2019-01-20T02:59:50.363Z,101563.24
2019-01-20T03:00:53.281Z,101567.52
2019-01-20T03:01:55.214Z,101556.19
2019-01-20T03:02:57.155Z,101552.66
2019-01-20T03:03:59.080Z,101563.99
2019-01-20T03:05:01.053Z,101557.49
2019-01-20T03:06:03.012Z,101561.39
2019-01-20T03:07:11.592Z,101557.49
2019-01-20T03:08:13.600Z,101559.55
2019-01-20T03:09:15.554Z,101554.72
2019-01-20T03:10:17.513Z,101556.56
2019-01-20T03:11:19.467Z,101558.41
2019-01-20T03:12:21.410Z,101558.79
2019-01-20T03:13:23.351Z,101559.55
2019-01-20T03:14:25.285Z,101564.75
2019-01-20T03:15:27.342Z,101561.02
2019-01-20T03:16:29.413Z,101559.17
2019-01-20T03:17:31.338Z,101563.99
2019-01-20T03:18:34.934Z,101567.52
2019-01-20T03:19:36.863Z,101561.77
2019-01-20T03:20:38.855Z,101563.07
2019-01-20T03:21:40.781Z,101560.84
2019-01-20T03:22:42.719Z,101562.14
2019-01-20T03:23:44.745Z,101558.63
2019-01-20T03:24:46.762Z,101558.79
2019-01-20T03:25:48.734Z,101557.49
2019-01-20T03:26:50.679Z,101553.42
2019-01-20T03:27:52.632Z,101554.72
2019-01-20T03:28:54.592Z,101551.74
2019-01-20T03:29:59.808Z,101556.02
2019-01-20T03:31:04.614Z,101555.09
2019-01-20T03:32:06.595Z,101549.52
2019-01-20T03:33:08.542Z,101547.30
2019-01-20T03:34:11.158Z,101546.37
2019-01-20T03:35:13.196Z,101550.61
2019-01-20T03:36:15.179Z,101546.70
2019-01-20T03:37:17.132Z,101550.27
2019-01-20T03:38:19.066Z,101548.59
2019-01-20T03:39:21.019Z,101548.59
2019-01-20T03:40:22.959Z,101551.57
2019-01-20T03:41:24.903Z,101542.47
2019-01-20T03:42:26.850Z,101537.61
2019-01-20T03:43:28.789Z,101535.00
2019-01-20T03:44:32.612Z,101540.58
2019-01-20T03:45:34.628Z,101538.19
2019-01-20T03:46:36.628Z,101537.27
2019-01-20T03:47:38.635Z,101547.30
2019-01-20T03:48:42.253Z,101547.30
2019-01-20T03:49:44.205Z,101543.77
2019-01-20T03:50:46.636Z,101544.11
2019-01-20T03:51:48.676Z,101550.61
2019-01-20T03:52:50.615Z,101542.47
2019-01-20T03:53:52.635Z,101550.61
2019-01-20T03:54:55.110Z,101546.70
2019-01-20T03:55:57.050Z,101549.69
2019-01-20T03:56:59.035Z,101551.57
2019-01-20T03:58:00.993Z,101552.28
2019-01-20T03:59:04.777Z,101552.28
2019-01-20T04:00:08.055Z,101552.28
2019-01-20T04:01:10.042Z,101544.86
2019-01-20T04:02:12.015Z,101546.16
2019-01-20T04:03:17.322Z,101548.38
2019-01-20T04:04:19.276Z,101554.52
2019-01-20T04:05:21.230Z,101545.78
2019-01-20T04:06:23.193Z,101552.66
2019-01-20T04:07:25.161Z,101544.86
2019-01-20T04:08:27.106Z,101547.84
2019-01-20T04:09:29.115Z,101549.14
2019-01-20T04:10:31.055Z,101549.52
2019-01-20T04:11:35.373Z,101556.19
2019-01-20T04:12:37.350Z,101548.22
2019-01-20T04:13:39.278Z,101550.06
2019-01-20T04:14:43.177Z,101552.66
2019-01-20T04:15:44.901Z,101549.52
2019-01-20T04:16:46.841Z,101551.73
2019-01-20T04:17:48.801Z,101551.19
2019-01-20T04:18:50.767Z,101556.02
2019-01-20T04:19:52.811Z,101551.19
2019-01-20T04:20:54.829Z,101554.72
2019-01-20T04:21:56.763Z,101554.34
2019-01-20T04:22:58.734Z,101557.69
2019-01-20T04:24:00.685Z,101558.62
2019-01-20T04:25:02.641Z,101550.81
2019-01-20T04:26:04.666Z,101556.94
2019-01-20T04:27:06.611Z,101553.04
2019-01-20T04:28:08.581Z,101557.31
2019-01-20T04:29:10.527Z,101554.72
2019-01-20T04:30:12.528Z,101554.72
2019-01-20T04:31:14.465Z,101556.56
2019-01-20T04:32:16.400Z,101557.69
2019-01-20T04:33:18.426Z,101552.12
2019-01-20T04:34:20.377Z,101552.83
2019-01-20T04:35:22.306Z,101552.49
2019-01-20T04:36:24.259Z,101549.52
2019-01-20T04:37:26.215Z,101552.49
2019-01-20T04:38:28.237Z,101542.80
2019-01-20T04:39:30.187Z,101542.43
2019-01-20T04:40:32.142Z,101545.03
2019-01-20T04:41:34.581Z,101540.79
2019-01-20T04:42:36.535Z,101542.43
2019-01-20T04:43:38.515Z,101537.23
2019-01-20T04:44:40.467Z,101540.79
2019-01-20T04:45:42.951Z,101541.13
2019-01-20T04:46:44.889Z,101544.69
2019-01-20T04:47:46.825Z,101542.43
2019-01-20T04:48:48.892Z,101539.83
2019-01-20T04:49:50.845Z,101545.41
2019-01-20T04:50:52.856Z,101541.71
2019-01-20T04:51:54.819Z,101544.31
2019-01-20T04:52:56.757Z,101539.11
2019-01-20T04:53:58.907Z,101539.11
2019-01-20T04:55:00.838Z,101544.31
2019-01-20T04:56:02.778Z,101550.06
2019-01-20T04:57:04.719Z,101540.95
2019-01-20T04:58:06.720Z,101546.16
2019-01-20T04:59:08.681Z,101552.12
2019-01-20T05:00:10.624Z,101550.98
2019-01-20T05:01:12.575Z,101551.36
2019-01-20T05:02:14.602Z,101547.84
2019-01-20T05:03:16.619Z,101550.44
2019-01-20T05:04:18.578Z,101550.44
2019-01-20T05:05:20.529Z,101551.91
2019-01-20T05:06:22.495Z,101552.66
2019-01-20T05:07:24.497Z,101549.31
2019-01-20T05:08:26.456Z,101545.78
2019-01-20T05:09:28.433Z,101542.27
2019-01-20T05:10:33.042Z,101545.41
2019-01-20T05:11:34.547Z,101546.70
2019-01-20T05:12:37.677Z,101543.56
2019-01-20T05:13:40.008Z,101540.95
2019-01-20T05:14:42.017Z,101541.88
2019-01-20T05:15:44.006Z,101541.51
2019-01-20T05:16:45.945Z,101544.86
2019-01-20T05:17:49.899Z,101537.61
2019-01-20T05:18:51.854Z,101538.91
2019-01-20T05:19:53.783Z,101539.49
2019-01-20T05:20:55.721Z,101543.77
2019-01-20T05:21:59.587Z,101545.06
2019-01-20T05:23:01.351Z,101544.69
2019-01-20T05:24:03.369Z,101544.69
2019-01-20T05:25:05.352Z,101544.69
2019-01-20T05:26:07.291Z,101543.39
2019-01-20T05:27:09.231Z,101544.69
2019-01-20T05:28:11.191Z,101548.97
2019-01-20T05:29:13.137Z,101548.97
2019-01-20T05:30:15.110Z,101542.47
2019-01-20T05:31:17.149Z,101542.64
2019-01-20T05:32:19.161Z,101550.81
2019-01-20T05:33:21.472Z,101544.69
2019-01-20T05:34:23.483Z,101545.99
2019-01-20T05:35:25.546Z,101549.14
2019-01-20T05:36:27.505Z,101548.77
2019-01-20T05:37:33.026Z,101553.42
2019-01-20T05:38:34.973Z,101554.34
2019-01-20T05:39:36.905Z,101545.61
2019-01-20T05:40:38.870Z,101544.86
2019-01-20T05:41:40.800Z,101546.92
2019-01-20T05:42:46.465Z,101546.16
2019-01-20T05:43:48.041Z,101549.14
2019-01-20T05:44:49.978Z,101545.78
2019-01-20T05:45:54.938Z,101545.03
2019-01-20T05:46:56.951Z,101545.03
2019-01-20T05:47:58.978Z,101545.95
2019-01-20T05:49:01.202Z,101551.33
2019-01-20T05:50:03.168Z,101551.70
2019-01-20T05:51:05.200Z,101546.50
2019-01-20T05:52:07.142Z,101547.43
2019-01-20T05:53:09.077Z,101551.50
2019-01-20T05:54:13.551Z,101552.25
2019-01-20T05:55:15.521Z,101543.32
2019-01-20T05:56:17.560Z,101545.00
2019-01-20T05:57:19.517Z,101544.63
2019-01-20T05:58:21.542Z,101541.47
2019-01-20T05:59:23.504Z,101545.00
2019-01-20T06:00:25.451Z,101540.72
2019-01-20T06:01:27.474Z,101547.22
2019-01-20T06:02:29.442Z,101544.63
2019-01-20T06:03:31.390Z,101548.52
2019-01-20T06:04:33.352Z,101547.22
2019-01-20T06:05:35.284Z,101551.67
2019-01-20T06:06:37.260Z,101551.50
2019-01-20T06:07:39.219Z,101557.62
2019-01-20T06:08:41.188Z,101558.92
2019-01-20T06:09:43.127Z,101547.59
2019-01-20T06:10:45.076Z,101555.41
2019-01-20T06:11:47.137Z,101555.41
2019-01-20T06:12:53.970Z,101550.95
2019-01-20T06:13:53.196Z,101553.93
2019-01-20T06:14:55.148Z,101552.63
2019-01-20T06:15:57.170Z,101558.76
2019-01-20T06:16:59.736Z,101554.30
2019-01-20T06:18:01.740Z,101561.19
2019-01-20T06:19:06.370Z,101556.73
2019-01-20T06:20:08.320Z,101557.28
2019-01-20T06:21:10.259Z,101557.66
2019-01-20T06:22:12.250Z,101555.44
2019-01-20T06:23:14.196Z,101558.79
2019-01-20T06:24:16.172Z,101558.04
2019-01-20T06:25:18.119Z,101557.31
2019-01-20T06:26:20.121Z,101558.63
2019-01-20T06:27:22.545Z,101561.39
2019-01-20T06:28:24.483Z,101559.37
2019-01-20T06:29:26.422Z,101559.00
2019-01-20T06:30:28.344Z,101563.07
2019-01-20T06:31:32.370Z,101562.69
2019-01-20T06:32:33.990Z,101562.14
2019-01-20T06:33:35.932Z,101556.02
2019-01-20T06:34:37.875Z,101559.00
2019-01-20T06:35:39.813Z,101556.94
2019-01-20T06:36:41.767Z,101562.52
2019-01-20T06:37:46.420Z,101564.58
2019-01-20T06:38:48.376Z,101566.22
2019-01-20T06:39:50.403Z,101569.77
2019-01-20T06:40:52.362Z,101572.72
2019-01-20T06:41:54.378Z,101575.32
2019-01-20T06:43:01.600Z,101570.49
2019-01-20T06:44:00.026Z,101569.95
2019-01-20T06:45:01.969Z,101568.64
2019-01-20T06:46:03.925Z,101574.77
2019-01-20T06:47:06.030Z,101574.39
2019-01-20T06:48:08.078Z,101567.72
2019-01-20T06:49:10.088Z,101575.90
2019-01-20T06:50:12.130Z,101572.34
2019-01-20T06:51:14.065Z,101573.64
2019-01-20T06:52:16.020Z,101581.10
2019-01-20T06:53:18.018Z,101584.05
2019-01-20T06:54:22.541Z,101584.05
2019-01-20T06:55:24.485Z,101585.92
2019-01-20T06:56:26.456Z,101591.84
2019-01-20T06:57:28.421Z,101590.55
2019-01-20T06:58:30.451Z,101587.39
2019-01-20T06:59:32.392Z,101594.11
2019-01-20T07:00:34.339Z,101589.24
2019-01-20T07:01:38.666Z,101587.95
2019-01-20T07:02:40.635Z,101586.47
2019-01-20T07:03:44.860Z,101593.34
2019-01-20T07:04:46.893Z,101592.80
2019-01-20T07:05:48.841Z,101595.95
2019-01-20T07:06:50.797Z,101599.30
2019-01-20T07:07:53.542Z,101604.67
2019-01-20T07:08:59.145Z,101600.77
2019-01-20T07:10:01.078Z,101598.00
2019-01-20T07:11:03.025Z,101603.75
2019-01-20T07:12:05.072Z,101603.20
2019-01-20T07:13:11.397Z,101604.13
2019-01-20T07:14:15.569Z,101616.75
2019-01-20T07:15:17.878Z,101611.93
2019-01-20T07:16:19.819Z,101613.23
2019-01-20T07:17:21.775Z,101617.88
2019-01-20T07:18:23.773Z,101614.91
2019-01-20T07:19:25.773Z,101611.38
2019-01-20T07:20:27.800Z,101607.48
2019-01-20T07:21:29.747Z,101610.83
2019-01-20T07:22:31.706Z,101607.31
2019-01-20T07:23:33.657Z,101609.91
2019-01-20T07:24:35.625Z,101612.88
2019-01-20T07:25:39.256Z,101611.75
2019-01-20T07:26:41.263Z,101615.48
2019-01-20T07:27:43.438Z,101618.26
2019-01-20T07:28:45.382Z,101616.41
2019-01-20T07:29:50.209Z,101620.86
2019-01-20T07:30:52.185Z,101616.23
2019-01-20T07:31:54.119Z,101618.09
2019-01-20T07:32:56.051Z,101614.56
2019-01-20T07:33:58.018Z,101622.73
2019-01-20T07:35:05.026Z,101616.23
2019-01-20T07:36:09.169Z,101620.14
2019-01-20T07:37:11.167Z,101616.98
2019-01-20T07:38:13.111Z,101626.09
2019-01-20T07:39:15.144Z,101624.41
2019-01-20T07:40:17.118Z,101619.97
2019-01-20T07:41:19.138Z,101617.91
2019-01-20T07:42:21.163Z,101622.19
2019-01-20T07:43:26.532Z,101624.79
2019-01-20T07:44:28.495Z,101620.52
2019-01-20T07:45:30.509Z,101618.28
2019-01-20T07:46:32.546Z,101624.79
2019-01-20T07:47:34.572Z,101620.34
2019-01-20T07:48:36.523Z,101619.59
2019-01-20T07:49:38.539Z,101622.56
2019-01-20T07:50:40.517Z,101631.29
2019-01-20T07:51:42.447Z,101626.46
2019-01-20T07:52:44.440Z,101627.39
2019-01-20T07:53:46.384Z,101625.54
2019-01-20T07:54:48.335Z,101628.69
2019-01-20T07:55:51.051Z,101633.52
2019-01-20T07:56:54.622Z,101632.22
2019-01-20T07:57:56.565Z,101633.52
2019-01-20T07:58:58.507Z,101643.16
2019-01-20T08:00:00.445Z,101642.62
2019-01-20T08:01:02.425Z,101646.14
2019-01-20T08:02:04.351Z,101644.84
2019-01-20T08:03:06.299Z,101645.59
2019-01-20T08:04:08.243Z,101646.52
2019-01-20T08:05:10.181Z,101641.31
2019-01-20T08:06:12.769Z,101643.92
2019-01-20T08:07:14.718Z,101657.84
2019-01-20T08:08:16.666Z,101649.50
2019-01-20T08:09:18.625Z,101654.32
2019-01-20T08:10:20.599Z,101656.92
2019-01-20T08:11:22.651Z,101655.62
2019-01-20T08:12:24.595Z,101659.52
2019-01-20T08:13:26.543Z,101656.55
2019-01-20T08:14:28.497Z,101659.70
2019-01-20T08:15:30.437Z,101658.77
2019-01-20T08:16:32.435Z,101664.72
2019-01-20T08:17:34.409Z,101663.97
2019-01-20T08:18:36.565Z,101658.22
2019-01-20T08:19:38.519Z,101664.89
2019-01-20T08:20:40.471Z,101667.67
2019-01-20T08:21:42.743Z,101667.13
2019-01-20T08:22:44.710Z,101667.50
2019-01-20T08:23:46.737Z,101671.57
2019-01-20T08:24:48.695Z,101673.63
2019-01-20T08:25:50.838Z,101671.40
2019-01-20T08:26:52.892Z,101672.50
2019-01-20T08:27:54.865Z,101669.52
2019-01-20T08:29:00.024Z,101669.90
2019-01-20T08:30:08.501Z,101674.72
2019-01-20T08:31:10.449Z,101672.50
2019-01-20T08:32:12.430Z,101669.90
2019-01-20T08:33:14.458Z,101672.50
2019-01-20T08:34:16.407Z,101671.20
2019-01-20T08:35:18.437Z,101662.47
2019-01-20T08:36:23.997Z,101666.55
2019-01-20T08:37:28.938Z,101673.97
2019-01-20T08:38:29.973Z,101668.77
2019-01-20T08:39:31.974Z,101672.30
2019-01-20T08:40:34.113Z,101672.12
2019-01-20T08:41:37.397Z,101678.80
2019-01-20T08:42:40.230Z,101673.97
2019-01-20T08:43:42.404Z,101680.09
2019-01-20T08:44:44.343Z,101688.83
2019-01-20T08:45:46.356Z,101686.23
2019-01-20T08:46:49.877Z,101691.42
2019-01-20T08:47:51.828Z,101690.13
2019-01-20T08:48:53.766Z,101692.73
2019-01-20T08:49:55.720Z,101700.53
2019-01-20T08:50:57.931Z,101694.03
2019-01-20T08:51:59.886Z,101697.55
2019-01-20T08:53:03.623Z,101695.54
2019-01-20T08:54:05.647Z,101696.84
2019-01-20T08:55:07.601Z,101703.68
2019-01-20T08:56:09.621Z,101696.84
2019-01-20T08:57:11.658Z,101698.14
2019-01-20T08:58:13.745Z,101695.54
2019-01-20T08:59:15.712Z,101699.98
2019-01-20T09:00:17.716Z,101700.36
2019-01-20T09:01:20.938Z,101700.36
2019-01-20T09:02:22.886Z,101702.59
2019-01-20T09:03:26.910Z,101701.66
2019-01-20T09:04:28.866Z,101707.05
2019-01-20T09:05:30.814Z,101701.29
2019-01-20T09:06:32.831Z,101706.67
2019-01-20T09:07:34.784Z,101710.94
2019-01-20T09:08:36.834Z,101708.72
2019-01-20T09:09:38.772Z,101710.94
2019-01-20T09:10:40.734Z,101711.31
2019-01-20T09:11:42.698Z,101709.64
2019-01-20T09:12:44.811Z,101712.45
2019-01-20T09:13:48.078Z,101708.72
2019-01-20T09:14:50.067Z,101716.73
2019-01-20T09:15:52.046Z,101714.84
2019-01-20T09:16:57.615Z,101714.84
2019-01-20T09:17:59.567Z,101720.05
2019-01-20T09:19:03.406Z,101719.67
2019-01-20T09:20:09.308Z,101717.45
2019-01-20T09:21:11.322Z,101713.92
2019-01-20T09:22:13.266Z,101710.02
2019-01-20T09:23:17.992Z,101709.09
2019-01-20T09:24:19.946Z,101715.05
2019-01-20T09:25:21.954Z,101720.80
2019-01-20T09:26:23.936Z,101718.57
2019-01-20T09:27:26.202Z,101718.57
2019-01-20T09:28:28.156Z,101722.84
2019-01-20T09:29:30.148Z,101722.47
2019-01-20T09:30:32.097Z,101718.57
2019-01-20T09:31:34.069Z,101719.88
2019-01-20T09:32:36.028Z,101723.77
2019-01-20T09:33:37.981Z,101726.00
2019-01-20T09:34:39.981Z,101721.89
2019-01-20T09:35:42.072Z,101727.09
2019-01-20T09:36:44.035Z,101726.38
2019-01-20T09:37:45.991Z,101720.80
2019-01-20T09:38:48.001Z,101725.08
2019-01-20T09:39:51.964Z,101727.09
2019-01-20T09:40:53.959Z,101733.25
2019-01-20T09:41:57.578Z,101735.85
2019-01-20T09:42:59.621Z,101735.27
2019-01-20T09:44:01.563Z,101733.25
2019-01-20T09:45:03.514Z,101728.05
2019-01-20T09:46:05.502Z,101732.50
2019-01-20T09:47:07.525Z,101731.95
2019-01-20T09:48:09.614Z,101733.25
2019-01-20T09:49:12.911Z,101732.50
2019-01-20T09:50:14.895Z,101735.85
2019-01-20T09:51:16.888Z,101735.48
2019-01-20T09:52:18.835Z,101736.78
2019-01-20T09:53:20.796Z,101736.19
2019-01-20T09:54:22.836Z,101733.25
2019-01-20T09:55:24.802Z,101740.47
2019-01-20T09:56:26.820Z,101738.45
2019-01-20T09:57:29.768Z,101742.91
2019-01-20T09:58:31.727Z,101744.76
2019-01-20T09:59:33.735Z,101740.48
2019-01-20T10:00:35.731Z,101736.41
2019-01-20T10:01:37.751Z,101741.61
2019-01-20T10:02:39.836Z,101740.30
2019-01-20T10:03:41.881Z,101742.91
2019-01-20T10:04:43.923Z,101741.61
2019-01-20T10:05:46.076Z,101740.30
2019-01-20T10:06:48.027Z,101744.20
2019-01-20T10:07:49.983Z,101744.20
2019-01-20T10:08:51.940Z,101744.20
2019-01-20T10:09:53.956Z,101741.61
2019-01-20T10:10:55.963Z,101740.68
2019-01-20T10:11:57.989Z,101744.58
2019-01-20T10:12:59.970Z,101745.50
2019-01-20T10:14:02.007Z,101742.36
2019-01-20T10:15:04.011Z,101738.63
2019-01-20T10:16:05.979Z,101741.98
2019-01-20T10:17:07.909Z,101738.45
2019-01-20T10:18:12.713Z,101740.68
2019-01-20T10:19:14.736Z,101740.86
2019-01-20T10:20:16.683Z,101742.16
2019-01-20T10:21:18.770Z,101743.08
2019-01-20T10:22:20.782Z,101742.53
2019-01-20T10:23:22.956Z,101746.98
2019-01-20T10:24:24.906Z,101746.43
2019-01-20T10:25:26.854Z,101747.36
2019-01-20T10:26:29.135Z,101745.13
2019-01-20T10:27:31.078Z,101747.36
2019-01-20T10:28:33.027Z,101748.87
2019-01-20T10:29:35.545Z,101752.02
2019-01-20T10:30:38.999Z,101755.00
2019-01-20T10:31:40.963Z,101751.65
2019-01-20T10:32:42.911Z,101750.72
2019-01-20T10:33:47.639Z,101752.95
2019-01-20T10:34:50.821Z,101752.02
2019-01-20T10:36:03.138Z,101752.57
2019-01-20T10:37:07.107Z,101753.50
2019-01-20T10:38:10.036Z,101750.34
2019-01-20T10:39:12.092Z,101752.20
2019-01-20T10:40:14.035Z,101750.90
2019-01-20T10:41:15.986Z,101754.42
2019-01-20T10:42:17.975Z,101751.07
2019-01-20T10:43:20.448Z,101750.52
2019-01-20T10:44:22.479Z,101754.05
2019-01-20T10:45:24.505Z,101753.13
2019-01-20T10:46:28.036Z,101752.20
2019-01-20T10:47:30.038Z,101755.55
2019-01-20T10:48:32.001Z,101750.34
2019-01-20T10:49:33.954Z,101746.45
2019-01-20T10:50:35.906Z,101745.70
2019-01-20T10:51:37.855Z,101745.70
2019-01-20T10:52:39.818Z,101745.50
2019-01-20T10:53:42.025Z,101743.82
2019-01-20T10:54:45.659Z,101748.65
2019-01-20T10:55:47.774Z,101745.50
2019-01-20T10:56:49.785Z,101749.95
2019-01-20T10:57:52.236Z,101746.05
2019-01-20T10:58:54.215Z,101750.88
2019-01-20T10:59:56.167Z,101746.59
2019-01-20T11:00:58.118Z,101746.22
2019-01-20T11:02:00.061Z,101744.17
2019-01-20T11:03:02.469Z,101741.57
2019-01-20T11:04:04.415Z,101741.74
2019-01-20T11:05:06.371Z,101745.83
2019-01-20T11:06:09.752Z,101744.89
2019-01-20T11:07:11.670Z,101749.73
2019-01-20T11:08:13.615Z,101744.89
2019-01-20T11:09:15.562Z,101743.81
2019-01-20T11:10:17.514Z,101748.63
2019-01-20T11:11:19.887Z,101747.34
2019-01-20T11:12:21.833Z,101746.03
2019-01-20T11:13:23.862Z,101746.58
2019-01-20T11:14:25.806Z,101748.44
2019-01-20T11:15:27.761Z,101749.91
2019-01-20T11:16:30.087Z,101747.86
2019-01-20T11:17:32.040Z,101749.88
2019-01-20T11:18:34.001Z,101752.28
2019-01-20T11:19:35.950Z,101745.95
2019-01-20T11:20:38.013Z,101748.93
2019-01-20T11:21:40.307Z,101748.55
2019-01-20T11:22:42.256Z,101751.70
2019-01-20T11:23:44.366Z,101738.70
2019-01-20T11:24:46.322Z,101745.20
2019-01-20T11:25:48.496Z,101742.27
2019-01-20T11:26:50.507Z,101735.00
2019-01-20T11:27:52.541Z,101737.22
2019-01-20T11:28:54.517Z,101740.75
2019-01-20T11:29:56.469Z,101745.03
2019-01-20T11:30:58.790Z,101742.43
2019-01-20T11:32:00.742Z,101750.06
2019-01-20T11:33:02.785Z,101756.19
2019-01-20T11:34:04.865Z,101748.76
2019-01-20T11:35:06.820Z,101747.28
2019-01-20T11:36:09.097Z,101745.81
2019-01-20T11:37:11.054Z,101745.81
2019-01-20T11:38:13.054Z,101751.02
2019-01-20T11:39:15.927Z,101751.39
2019-01-20T11:40:18.158Z,101745.83
2019-01-20T11:41:20.093Z,101750.66
2019-01-20T11:42:22.052Z,101749.73
2019-01-20T11:43:24.023Z,101747.51
2019-01-20T11:44:25.971Z,101744.36
2019-01-20T11:45:28.454Z,101751.78
2019-01-20T11:46:30.437Z,101747.51
2019-01-20T11:47:32.390Z,101745.66
2019-01-20T11:48:34.445Z,101750.31
2019-01-20T11:49:36.906Z,101749.73
2019-01-20T11:50:38.828Z,101746.02